Time;durP1;ratioP1;P1;durP2;ratioP2;P2;SDS_P1;SDS_P2;PMS_P1;PMS_P2;Temp;Humidity;BMP_temperature;BMP_pressure;BME280_temperature;BME280_humidity;BME280_pressure;Samples;Min_cycle;Max_cycle;Signal;HPM_P1;HPM_P2
2020/12/11 00:00:51;;;;;;;12.77;6.10;;;3.70;1.00;;;;;;5096380;28;20205;-74
2020/12/11 00:03:17;;;;;;;11.87;5.73;;;3.70;1.00;;;;;;5095737;28;20179;-75
2020/12/11 00:05:44;;;;;;;12.40;5.70;;;3.70;1.00;;;;;;5081364;28;20657;-75
2020/12/11 00:08:11;;;;;;;12.38;5.55;;;3.70;1.00;;;;;;5086810;28;20159;-74
2020/12/11 00:10:36;;;;;;;11.88;5.40;;;3.70;1.00;;;;;;5074759;28;20178;-76
2020/12/11 00:13:08;;;;;;;9.10;5.53;;;3.60;1.00;;;;;;5076068;28;20159;-75
2020/12/11 00:15:50;;;;;;;9.55;4.85;;;3.60;1.00;;;;;;5076924;28;20224;-75
2020/12/11 00:18:16;;;;;;;14.95;6.50;;;3.60;1.00;;;;;;5076032;28;20171;-75
2020/12/11 00:20:44;;;;;;;12.60;6.20;;;3.60;1.00;;;;;;5075822;28;20562;-75
2020/12/11 00:23:14;;;;;;;12.90;4.97;;;3.70;1.00;;;;;;5077013;28;20178;-75
2020/12/11 00:25:58;;;;;;;10.27;4.80;;;3.60;1.00;;;;;;5075844;28;20211;-74
2020/12/11 00:28:30;;;;;;;9.30;4.70;;;3.60;1.00;;;;;;5076035;28;20182;-75
2020/12/11 00:30:57;;;;;;;8.13;4.63;;;3.60;1.00;;;;;;5075187;28;20175;-75
2020/12/11 00:33:27;;;;;;;13.02;4.95;;;3.60;1.00;;;;;;5076379;28;20170;-74
2020/12/11 00:35:53;;;;;;;12.32;4.95;;;3.60;1.00;;;;;;5075615;28;20526;-75
2020/12/11 00:38:21;;;;;;;10.45;4.90;;;3.60;1.00;;;;;;5075662;28;20179;-75
2020/12/11 00:40:50;;;;;;;14.30;5.88;;;3.70;1.00;;;;;;5086932;28;20218;-75
2020/12/11 00:43:20;;;;;;;12.30;5.38;;;3.70;1.00;;;;;;5094499;28;20170;-75
2020/12/11 00:45:46;;;;;;;15.25;6.75;;;3.70;1.00;;;;;;5092528;28;20294;-75
2020/12/11 00:48:20;;;;;;;11.90;5.83;;;3.70;1.00;;;;;;5095633;28;20238;-74
2020/12/11 00:51:02;;;;;;;11.90;5.50;;;3.70;1.00;;;;;;5095349;28;20573;-74
2020/12/11 00:53:40;;;;;;;15.35;6.50;;;3.80;1.00;;;;;;5091068;28;20172;-74
2020/12/11 00:56:22;;;;;;;13.10;5.72;;;3.70;1.00;;;;;;5094940;28;20181;-74
2020/12/11 00:58:48;;;;;;;9.20;4.70;;;3.70;1.00;;;;;;5079520;28;20216;-74
2020/12/11 01:01:14;;;;;;;15.73;5.73;;;3.80;1.00;;;;;;5088846;28;20199;-74
2020/12/11 01:03:45;;;;;;;10.70;5.40;;;3.80;1.00;;;;;;5074940;28;20212;-75
2020/12/11 01:06:11;;;;;;;12.73;5.30;;;;;;;;;;5095129;28;20268;-75
2020/12/11 01:08:36;;;;;;;9.85;5.07;;;3.90;1.00;;;;;;5087661;28;20171;-73
2020/12/11 01:11:02;;;;;;;8.47;4.40;;;3.90;1.00;;;;;;5074789;28;20682;-73
2020/12/11 01:13:28;;;;;;;10.30;4.60;;;3.90;1.00;;;;;;5074484;28;20158;-73
2020/12/11 01:15:56;;;;;;;5.47;4.20;;;3.90;1.00;;;;;;5074358;28;20400;-73
2020/12/11 01:18:22;;;;;;;8.20;4.68;;;3.90;1.00;;;;;;5074397;28;20408;-73
2020/12/11 01:20:48;;;;;;;9.03;4.27;;;3.90;1.00;;;;;;5074505;28;20634;-73
2020/12/11 01:23:13;;;;;;;9.60;4.77;;;3.90;1.00;;;;;;5091574;28;20208;-75
2020/12/11 01:25:39;;;;;;;7.00;4.27;;;3.90;1.00;;;;;;5074309;28;20202;-75
2020/12/11 01:28:05;;;;;;;11.30;5.03;;;3.90;1.00;;;;;;5090314;28;20645;-75
2020/12/11 01:30:31;;;;;;;7.73;4.33;;;3.90;1.00;;;;;;5085094;28;20198;-75
2020/12/11 01:33:08;;;;;;;8.07;4.25;;;3.90;1.00;;;;;;5074152;28;20212;-75
2020/12/11 01:35:34;;;;;;;10.77;4.90;;;4.00;1.00;;;;;;5074498;28;20179;-75
2020/12/11 01:38:00;;;;;;;7.77;4.13;;;4.00;1.00;;;;;;5074566;28;20499;-74
2020/12/11 01:40:25;;;;;;;6.03;4.30;;;4.00;1.00;;;;;;5089464;28;20167;-74
2020/12/11 01:42:56;;;;;;;9.33;4.10;;;4.00;1.00;;;;;;5094215;28;20182;-75
2020/12/11 01:45:33;;;;;;;7.75;4.82;;;3.90;1.00;;;;;;5094580;28;20636;-75
2020/12/11 01:48:03;;;;;;;10.20;4.30;;;3.90;1.00;;;;;;5094699;28;20158;-74
2020/12/11 01:50:34;;;;;;;5.80;4.28;;;3.90;1.00;;;;;;5082263;28;20171;-74
2020/12/11 01:53:02;;;;;;;5.45;3.85;;;3.90;1.00;;;;;;5076122;28;20171;-74
2020/12/11 01:55:32;;;;;;;5.93;3.83;;;3.90;1.00;;;;;;5073803;28;20194;-73
2020/12/11 01:58:06;;;;;;;8.32;4.78;;;3.80;1.00;;;;;;5073693;28;20159;-73
2020/12/11 02:00:33;;;;;;;6.65;3.80;;;3.80;1.00;;;;;;5073806;28;20187;-73
2020/12/11 02:03:05;;;;;;;9.65;4.20;;;3.80;1.00;;;;;;5089871;28;20259;-73
2020/12/11 02:05:32;;;;;;;6.00;3.85;;;3.80;1.00;;;;;;5073928;28;20223;-73
2020/12/11 02:07:59;;;;;;;5.45;3.65;;;3.80;1.00;;;;;;5073890;28;20182;-74
2020/12/11 02:10:46;;;;;;;7.45;3.83;;;3.80;1.00;;;;;;5074037;28;20155;-75
2020/12/11 02:13:20;;;;;;;4.65;3.53;;;3.80;1.00;;;;;;5073616;28;20171;-75
2020/12/11 02:15:50;;;;;;;6.15;4.10;;;3.80;1.00;;;;;;5089821;28;20177;-74
2020/12/11 02:18:16;;;;;;;5.63;3.63;;;3.70;1.00;;;;;;5083249;28;20630;-75
2020/12/11 02:20:45;;;;;;;5.93;3.50;;;3.70;1.00;;;;;;5076128;28;20193;-74
2020/12/11 02:23:11;;;;;;;7.28;4.13;;;3.70;1.00;;;;;;5094399;28;20159;-75
2020/12/11 02:25:42;;;;;;;8.80;3.47;;;3.60;1.00;;;;;;5093958;28;20213;-75
2020/12/11 02:28:14;;;;;;;8.65;4.13;;;3.50;1.00;;;;;;5093758;28;20162;-75
2020/12/11 02:30:40;;;;;;;6.57;3.30;;;3.60;1.00;;;;;;5093914;28;20208;-75
2020/12/11 02:33:08;;;;;;;6.40;3.30;;;3.50;1.00;;;;;;5080163;28;20258;-74
2020/12/11 02:35:34;;;;;;;6.28;4.18;;;3.50;1.00;;;;;;5073889;28;20175;-75
2020/12/11 02:38:00;;;;;;;8.60;3.90;;;3.50;1.00;;;;;;5073847;28;20610;-73
2020/12/11 02:40:26;;;;;;;7.60;3.93;;;3.40;1.00;;;;;;5077057;28;20163;-74
2020/12/11 02:42:52;;;;;;;7.80;3.85;;;3.40;1.00;;;;;;5073326;28;20633;-74
2020/12/11 02:45:18;;;;;;;4.67;3.40;;;3.40;1.00;;;;;;5074700;28;20279;-74
2020/12/11 02:47:44;;;;;;;6.37;3.23;;;3.40;1.00;;;;;;5093348;28;20300;-73
2020/12/11 02:50:10;;;;;;;4.35;3.42;;;3.40;1.00;;;;;;5091539;28;20628;-73
2020/12/11 02:52:36;;;;;;;4.97;2.90;;;3.40;1.00;;;;;;5093578;28;20159;-73
2020/12/11 02:55:01;;;;;;;2.53;2.30;;;3.40;1.00;;;;;;5093015;28;20212;-73
2020/12/11 02:57:32;;;;;;;8.30;3.40;;;3.30;1.00;;;;;;5093701;28;20155;-73
2020/12/11 02:59:58;;;;;;;6.75;3.70;;;3.30;1.00;;;;;;5091621;28;20208;-74
2020/12/11 03:02:32;;;;;;;5.83;3.10;;;3.30;1.00;;;;;;5093143;28;20194;-74
2020/12/11 03:05:03;;;;;;;6.13;3.35;;;3.30;1.00;;;;;;5090014;28;20165;-73
2020/12/11 03:07:28;;;;;;;8.48;3.65;;;3.20;1.00;;;;;;5091339;28;20174;-73
2020/12/11 03:09:54;;;;;;;12.43;3.57;;;3.20;1.00;;;;;;5083674;28;20258;-75
2020/12/11 03:12:26;;;;;;;6.43;3.60;;;3.20;1.00;;;;;;5077259;28;20159;-74
2020/12/11 03:14:52;;;;;;;5.90;3.90;;;3.20;1.00;;;;;;5091337;28;20171;-74
2020/12/11 03:17:20;;;;;;;8.20;4.40;;;3.20;1.00;;;;;;5091792;28;20266;-75
2020/12/11 03:19:46;;;;;;;6.53;3.83;;;3.20;1.00;;;;;;5076836;28;20171;-75
2020/12/11 03:22:14;;;;;;;9.00;4.30;;;3.20;1.00;;;;;;5076662;28;20293;-75
2020/12/11 03:24:40;;;;;;;10.32;5.40;;;3.10;1.00;;;;;;5091183;28;20644;-73
2020/12/11 03:27:09;;;;;;;12.20;4.67;;;3.10;1.00;;;;;;5096950;28;20190;-73
2020/12/11 03:29:34;;;;;;;9.25;4.40;;;3.10;1.00;;;;;;5096949;28;20159;-73
2020/12/11 03:32:03;;;;;;;7.93;4.80;;;3.10;1.00;;;;;;5094562;28;20173;-73
2020/12/11 03:34:32;;;;;;;7.47;3.63;;;3.10;1.00;;;;;;5094505;28;20660;-73
2020/12/11 03:36:58;;;;;;;7.70;4.13;;;3.10;1.00;;;;;;5097238;28;20597;-73
2020/12/11 03:39:26;;;;;;;7.73;4.27;;;3.10;1.00;;;;;;5087993;28;20178;-74
2020/12/11 03:41:53;;;;;;;7.28;4.25;;;3.10;1.00;;;;;;5077387;28;20625;-73
2020/12/11 03:44:21;;;;;;;6.03;3.70;;;3.10;1.00;;;;;;5076255;28;20194;-74
2020/12/11 03:46:54;;;;;;;27.73;4.15;;;3.00;1.00;;;;;;5076276;28;20285;-73
2020/12/11 03:49:20;;;;;;;8.05;3.80;;;3.10;1.00;;;;;;5076166;28;20199;-74
2020/12/11 03:51:46;;;;;;;8.07;4.10;;;3.10;1.00;;;;;;5076262;28;20218;-73
2020/12/11 03:54:20;;;;;;;11.00;4.17;;;3.00;1.00;;;;;;5077273;28;20637;-75
2020/12/11 03:56:50;;;;;;;8.32;4.60;;;3.10;1.00;;;;;;5076678;28;20208;-75
2020/12/11 03:59:20;;;;;;;6.70;3.95;;;3.00;1.00;;;;;;5091858;28;20539;-75
2020/12/11 04:01:50;;;;;;;11.63;4.55;;;3.10;1.00;;;;;;5076247;28;20198;-75
2020/12/11 04:04:20;;;;;;;8.00;4.10;;;3.10;1.00;;;;;;5081850;28;20187;-75
2020/12/11 04:06:50;;;;;;;8.65;3.50;;;3.00;1.00;;;;;;5076022;28;20183;-75
2020/12/11 04:09:16;;;;;;;7.60;4.63;;;3.00;1.00;;;;;;5076303;28;20178;-75
2020/12/11 04:11:50;;;;;;;8.30;4.20;;;3.00;1.00;;;;;;5076261;28;20505;-75
2020/12/11 04:14:44;;;;;;;6.20;4.35;;;2.90;1.00;;;;;;5088973;28;20618;-75
2020/12/11 04:17:10;;;;;;;8.13;3.88;;;3.00;1.00;;;;;;5096474;28;20177;-75
2020/12/11 04:19:38;;;;;;;9.53;4.10;;;2.90;1.00;;;;;;5096135;28;20162;-75
2020/12/11 04:22:04;;;;;;;8.13;4.50;;;2.90;1.00;;;;;;5096175;28;20159;-75
2020/12/11 04:24:38;;;;;;;6.57;4.60;;;2.80;1.00;;;;;;5094481;28;20170;-75
2020/12/11 04:27:04;;;;;;;6.25;3.80;;;2.80;1.00;;;;;;5075951;28;20670;-75
2020/12/11 04:29:30;;;;;;;6.60;3.83;;;2.70;1.00;;;;;;5075882;28;20189;-75
2020/12/11 04:32:08;;;;;;;10.07;5.00;;;2.60;1.00;;;;;;5075931;28;20208;-75
2020/12/11 04:34:38;;;;;;;7.78;4.13;;;2.50;1.00;;;;;;5079596;28;20206;-75
2020/12/11 04:37:08;;;;;;;6.55;3.20;;;2.50;1.00;;;;;;5096102;28;20179;-75
2020/12/11 04:39:34;;;;;;;5.35;3.33;;;2.50;1.00;;;;;;5076193;28;20230;-75
2020/12/11 04:42:17;;;;;;;6.50;4.17;;;2.50;1.00;;;;;;5075464;28;20644;-75
2020/12/11 04:44:44;;;;;;;4.57;3.10;;;2.40;1.00;;;;;;5082796;28;20424;-75
2020/12/11 04:47:21;;;;;;;5.07;3.30;;;2.30;1.00;;;;;;5077142;28;20206;-76
2020/12/11 04:49:51;;;;;;;7.43;4.00;;;2.20;1.00;;;;;;5084418;28;20219;-75
2020/12/11 04:52:26;;;;;;;8.00;3.50;;;2.20;1.00;;;;;;5075182;28;20267;-74
2020/12/11 04:54:59;;;;;;;5.43;3.15;;;2.20;1.00;;;;;;5079628;28;20158;-75
2020/12/11 04:57:30;;;;;;;6.65;3.85;;;2.20;1.00;;;;;;5078366;28;20206;-75
2020/12/11 04:59:56;;;;;;;7.07;3.83;;;2.20;1.00;;;;;;5075455;28;20491;-75
2020/12/11 05:02:26;;;;;;;8.63;4.35;;;2.20;1.00;;;;;;5075070;28;20223;-75
2020/12/11 05:04:55;;;;;;;7.88;4.03;;;2.20;1.00;;;;;;5076868;28;20162;-75
2020/12/11 05:07:20;;;;;;;10.98;4.65;;;2.10;1.00;;;;;;5077086;28;20796;-75
2020/12/11 05:09:59;;;;;;;7.63;3.90;;;2.00;1.00;;;;;;5075098;28;20186;-75
2020/12/11 05:12:33;;;;;;;8.63;4.38;;;2.10;1.00;;;;;;5075085;28;20234;-75
2020/12/11 05:15:11;;;;;;;7.70;4.60;;;2.00;1.00;;;;;;5074837;28;20168;-75
2020/12/11 05:17:44;;;;;;;7.20;4.03;;;2.00;1.00;;;;;;5074731;28;20628;-75
2020/12/11 05:20:11;;;;;;;7.78;4.18;;;2.00;1.00;;;;;;5075057;28;20182;-74
2020/12/11 05:22:44;;;;;;;6.32;3.78;;;2.00;1.00;;;;;;5093351;28;20174;-74
2020/12/11 05:25:13;;;;;;;5.95;3.10;;;2.00;1.00;;;;;;5086008;28;20510;-73
2020/12/11 05:27:44;;;;;;;10.88;4.90;;;2.00;1.00;;;;;;5074477;28;20636;-73
2020/12/11 05:30:26;;;;;;;8.23;3.50;;;2.00;1.00;;;;;;5074387;28;20193;-73
2020/12/11 05:32:57;;;;;;;9.32;4.82;;;2.00;1.00;;;;;;5090003;28;20223;-73
2020/12/11 05:35:30;;;;;;;18.38;5.72;;;1.90;1.00;;;;;;5088589;28;20178;-73
2020/12/11 05:38:04;;;;;;;10.55;3.78;;;1.90;1.00;;;;;;5075016;28;20674;-73
2020/12/11 05:40:38;;;;;;;8.57;4.03;;;1.90;1.00;;;;;;5074301;28;20594;-73
2020/12/11 05:43:23;;;;;;;9.30;3.92;;;1.80;1.00;;;;;;5076353;28;20582;-73
2020/12/11 05:45:58;;;;;;;4.28;2.90;;;1.70;1.00;;;;;;5093876;28;20234;-73
2020/12/11 05:48:26;;;;;;;12.23;3.88;;;1.70;1.00;;;;;;5093982;28;20492;-74
2020/12/11 05:50:53;;;;;;;6.40;3.58;;;1.70;1.00;;;;;;5094186;28;20249;-73
2020/12/11 05:53:20;;;;;;;7.40;4.07;;;1.70;1.00;;;;;;5079998;28;20205;-74
2020/12/11 05:55:48;;;;;;;6.97;3.85;;;1.70;1.00;;;;;;5074267;28;20254;-73
2020/12/11 05:58:15;;;;;;;9.30;3.45;;;1.70;1.00;;;;;;5074030;28;20352;-73
2020/12/11 06:00:41;;;;;;;7.30;4.05;;;1.70;1.00;;;;;;5073704;28;20198;-73
2020/12/11 06:03:08;;;;;;;8.50;4.07;;;1.60;1.00;;;;;;5088229;28;20170;-73
2020/12/11 06:05:38;;;;;;;9.07;3.55;;;1.70;1.00;;;;;;5092001;28;20447;-73
2020/12/11 06:08:09;;;;;;;10.05;4.60;;;1.60;1.00;;;;;;5075992;28;20183;-74
2020/12/11 06:10:40;;;;;;;5.95;3.60;;;1.60;1.00;;;;;;5094137;28;20178;-73
2020/12/11 06:13:08;;;;;;;13.10;6.07;;;1.60;1.00;;;;;;5078951;28;20203;-73
2020/12/11 06:15:41;;;;;;;9.88;4.20;;;1.60;1.00;;;;;;5073820;28;20246;-73
2020/12/11 06:18:17;;;;;;;7.25;3.90;;;1.60;1.00;;;;;;5073780;28;20175;-73
2020/12/11 06:20:45;;;;;;;9.07;4.07;;;1.60;1.00;;;;;;5074452;28;20224;-73
2020/12/11 06:23:29;;;;;;;5.50;3.60;;;1.60;1.00;;;;;;5083811;28;20513;-73
2020/12/11 06:26:03;;;;;;;11.15;3.72;;;1.60;1.00;;;;;;5074085;28;20652;-74
2020/12/11 06:28:51;;;;;;;12.45;4.70;;;1.60;1.00;;;;;;5087162;28;20805;-74
2020/12/11 06:31:22;;;;;;;4.53;2.85;;;1.60;1.00;;;;;;5080417;28;20225;-75
2020/12/11 06:33:57;;;;;;;9.35;4.20;;;1.60;1.00;;;;;;5073282;28;20190;-75
2020/12/11 06:36:22;;;;;;;8.35;3.95;;;1.70;1.00;;;;;;5087176;28;20482;-75
2020/12/11 06:38:56;;;;;;;11.80;5.17;;;1.70;1.00;;;;;;5080481;28;20178;-75
2020/12/11 06:41:28;;;;;;;10.50;4.03;;;1.70;1.00;;;;;;5073843;28;20389;-73
2020/12/11 06:44:17;;;;;;;8.55;4.90;;;1.70;1.00;;;;;;5077792;28;20207;-74
2020/12/11 06:47:07;;;;;;;7.80;4.35;;;1.80;1.00;;;;;;5077327;28;20186;-74
2020/12/11 06:49:33;;;;;;;12.38;4.47;;;1.90;1.00;;;;;;5083798;28;20178;-74
2020/12/11 06:52:01;;;;;;;12.67;5.50;;;1.90;1.00;;;;;;5077402;28;20159;-73
2020/12/11 06:54:27;;;;;;;8.95;4.22;;;2.00;1.00;;;;;;5077329;28;20393;-73
2020/12/11 06:56:59;;;;;;;15.67;4.83;;;2.10;1.00;;;;;;5083120;28;20185;-73
2020/12/11 06:59:25;;;;;;;11.55;5.50;;;2.20;1.00;;;;;;5086535;28;20171;-73
2020/12/11 07:02:17;;;;;;;10.30;4.20;;;2.20;1.00;;;;;;5090937;28;20186;-74
2020/12/11 07:04:43;;;;;;;11.30;5.32;;;2.30;1.00;;;;;;5078368;28;20465;-74
2020/12/11 07:07:09;;;;;;;10.25;5.00;;;2.30;1.00;;;;;;5097398;28;20514;-74
2020/12/11 07:09:47;;;;;;;11.98;4.97;;;2.40;1.00;;;;;;5095080;28;20186;-74
2020/12/11 07:12:17;;;;;;;16.52;5.72;;;2.40;1.00;;;;;;5077359;28;20159;-74
2020/12/11 07:14:44;;;;;;;13.95;5.53;;;2.50;1.00;;;;;;5077943;28;20159;-74
2020/12/11 07:17:29;;;;;;;12.57;5.60;;;2.50;1.00;;;;;;5090980;28;20171;-74
2020/12/11 07:19:57;;;;;;;13.30;5.20;;;2.60;1.00;;;;;;5076789;28;20190;-73
2020/12/11 07:22:23;;;;;;;10.15;6.15;;;2.70;1.00;;;;;;5077298;28;20166;-75
2020/12/11 07:25:03;;;;;;;14.97;6.00;;;2.70;1.00;;;;;;5079144;28;20269;-74
2020/12/11 07:27:28;;;;;;;11.18;5.68;;;2.80;1.00;;;;;;5080345;28;20182;-74
2020/12/11 07:29:54;;;;;;;14.20;6.37;;;2.80;1.00;;;;;;5097207;28;20162;-74
2020/12/11 07:32:23;;;;;;;8.53;5.40;;;2.80;1.00;;;;;;5080187;28;20622;-73
2020/12/11 07:34:52;;;;;;;10.90;5.15;;;2.80;1.00;;;;;;5076147;28;20170;-74
2020/12/11 07:37:32;;;;;;;10.88;5.70;;;2.90;1.00;;;;;;5076433;28;20657;-74
2020/12/11 07:39:58;;;;;;;12.30;6.32;;;2.90;1.00;;;;;;5090726;28;20166;-74
2020/12/11 07:42:25;;;;;;;17.07;6.77;;;2.90;1.00;;;;;;5078534;28;20257;-75
2020/12/11 07:44:57;;;;;;;16.58;7.40;;;3.10;1.00;;;;;;5088673;28;20952;-75
2020/12/11 07:47:35;;;;;;;14.45;6.78;;;3.10;1.00;;;;;;5079818;28;20264;-74
2020/12/11 07:50:27;;;;;;;17.42;6.60;;;3.10;1.00;;;;;;5093265;28;20194;-75
2020/12/11 07:53:10;;;;;;;14.93;6.82;;;3.10;1.00;;;;;;5089651;28;20164;-75
2020/12/11 07:55:38;;;;;;;17.23;6.13;;;3.20;1.00;;;;;;5075526;28;20167;-74
2020/12/11 07:58:26;;;;;;;16.27;6.70;;;3.40;1.00;;;;;;5076603;28;20246;-77
2020/12/11 08:00:52;;;;;;;22.92;5.75;;;3.40;1.00;;;;;;5093987;28;20227;-75
2020/12/11 08:03:26;;;;;;;15.83;6.53;;;3.50;1.00;;;;;;5096579;28;20264;-75
2020/12/11 08:05:52;;;;;;;13.88;6.75;;;3.50;1.00;;;;;;5092579;28;20217;-75
2020/12/11 08:08:26;;;;;;;16.97;6.93;;;3.60;1.00;;;;;;5096478;28;20242;-75
2020/12/11 08:10:56;;;;;;;18.17;6.47;;;3.60;1.00;;;;;;5089520;28;20171;-74
2020/12/11 08:13:23;;;;;;;18.13;6.80;;;3.70;1.00;;;;;;5075760;28;20225;-74
2020/12/11 08:15:49;;;;;;;15.95;6.50;;;3.90;1.00;;;;;;5078822;28;20198;-74
2020/12/11 08:18:22;;;;;;;14.63;6.03;;;3.90;1.00;;;;;;5074585;28;20187;-74
2020/12/11 08:20:50;;;;;;;17.95;7.90;;;4.00;1.00;;;;;;5084918;28;20512;-74
2020/12/11 08:23:49;;;;;;;16.67;6.93;;;4.00;1.00;;;;;;5078663;28;20173;-74
2020/12/11 08:26:19;;;;;;;14.82;6.80;;;4.10;1.00;;;;;;5034788;28;20208;-74
2020/12/11 08:28:48;;;;;;;16.52;7.20;;;4.00;1.00;;;;;;5052635;28;20303;-75
2020/12/11 08:31:21;;;;;;;15.45;6.85;;;4.10;1.00;;;;;;5053596;28;20751;-77
2020/12/11 08:34:17;;;;;;;18.45;8.18;;;4.30;1.00;;;;;;5046384;28;20182;-75
2020/12/11 08:37:01;;;;;;;14.32;6.45;;;4.30;1.00;;;;;;5052447;28;20582;-78
2020/12/11 08:39:32;;;;;;;20.33;7.75;;;4.30;1.00;;;;;;5052917;28;20168;-74
2020/12/11 08:50:13;;;;;;;13.50;7.50;;;4.50;1.00;;;;;;5051908;28;20196;-74
2020/12/11 08:52:40;;;;;;;16.23;7.63;;;4.50;1.00;;;;;;5031296;28;20659;-74
2020/12/11 08:55:26;;;;;;;13.18;7.60;;;4.60;1.00;;;;;;5014905;28;20185;-73
2020/12/11 08:57:52;;;;;;;12.82;6.85;;;4.60;1.00;;;;;;5054418;28;20216;-74
2020/12/11 09:00:18;;;;;;;23.93;6.57;;;4.70;1.00;;;;;;5055347;28;20191;-73
2020/12/11 09:02:44;;;;;;;17.63;7.82;;;4.80;1.00;;;;;;5063330;28;20432;-74
2020/12/11 09:05:10;;;;;;;15.05;7.05;;;4.80;1.00;;;;;;5073538;28;20227;-74
2020/12/11 09:07:36;;;;;;;19.47;8.03;;;4.80;1.00;;;;;;5080228;28;20170;-74
2020/12/11 09:10:07;;;;;;;17.02;8.48;;;4.90;1.00;;;;;;5086374;28;20454;-74
2020/12/11 09:12:37;;;;;;;14.00;6.88;;;5.00;1.00;;;;;;5094244;28;20169;-74
2020/12/11 09:15:08;;;;;;;17.45;7.35;;;5.20;1.00;;;;;;5090271;28;20166;-75
2020/12/11 09:17:37;;;;;;;18.65;7.78;;;5.10;1.00;;;;;;5113764;28;20170;-75
2020/12/11 09:20:04;;;;;;;15.38;7.95;;;5.20;1.00;;;;;;5104723;28;20187;-75
2020/12/11 09:22:30;;;;;;;16.05;7.60;;;5.20;1.00;;;;;;5088445;28;20193;-75
2020/12/11 09:24:55;;;;;;;14.50;7.57;;;5.30;1.00;;;;;;5094023;28;20170;-74
2020/12/11 09:27:21;;;;;;;19.17;8.30;;;5.30;1.00;;;;;;5073837;28;20549;-74
2020/12/11 09:29:48;;;;;;;13.97;6.90;;;5.50;1.00;;;;;;5073602;28;20175;-73
2020/12/11 09:32:23;;;;;;;15.07;6.93;;;5.70;1.00;;;;;;5088851;28;20227;-73
2020/12/11 09:34:49;;;;;;;16.10;7.80;;;5.70;1.00;;;;;;5072954;28;20365;-73
2020/12/11 09:37:15;;;;;;;13.57;7.00;;;5.50;1.00;;;;;;5073970;28;20915;-73
2020/12/11 09:39:41;;;;;;;16.63;8.00;;;7.80;1.00;;;;;;5073246;28;20684;-73
2020/12/11 09:42:23;;;;;;;16.40;7.53;;;5.40;1.00;;;;;;5073553;28;20508;-73
2020/12/11 09:48:06;;;;;;;15.05;7.55;;;5.40;1.00;;;;;;5047256;28;20850;-73
2020/12/11 09:50:39;;;;;;;16.02;7.75;;;5.40;1.00;;;;;;5046843;28;20561;-73
2020/12/11 09:56:06;;;;;;;12.23;6.50;;;5.40;1.00;;;;;;5050653;28;20163;-73
2020/12/11 09:58:22;;;;;;;14.32;7.57;;;5.50;1.00;;;;;;5048265;28;20192;-74
2020/12/11 10:00:51;;;;;;;15.57;7.30;;;5.50;1.00;;;;;;5050657;28;20285;-73
2020/12/11 10:03:20;;;;;;;15.68;7.72;;;5.40;1.00;;;;;;5038840;28;20242;-73
2020/12/11 10:05:45;;;;;;;17.08;7.00;;;5.50;1.00;;;;;;5039537;28;20270;-73
2020/12/11 10:08:11;;;;;;;15.43;7.10;;;6.40;1.00;;;;;;5040783;28;20228;-74
2020/12/11 10:10:37;;;;;;;15.23;7.40;;;5.60;1.00;;;;;;5033260;28;20246;-74
2020/12/11 10:13:04;;;;;;;16.37;7.60;;;5.50;1.00;;;;;;5031106;28;20156;-73
2020/12/11 10:15:31;;;;;;;14.95;7.32;;;5.50;1.00;;;;;;5041168;28;20516;-73
2020/12/11 10:17:58;;;;;;;12.80;7.03;;;5.40;1.00;;;;;;5048747;28;20183;-73
2020/12/11 10:20:24;;;;;;;14.10;7.80;;;5.40;1.00;;;;;;5045537;28;20172;-73
2020/12/11 10:22:52;;;;;;;15.77;7.25;;;5.40;1.00;;;;;;5042435;28;20787;-73
2020/12/11 10:25:20;;;;;;;14.25;7.53;;;5.50;1.00;;;;;;5092086;28;20184;-73
2020/12/11 10:27:47;;;;;;;18.90;8.10;;;5.50;1.00;;;;;;5092894;28;20154;-74
2020/12/11 10:30:12;;;;;;;14.05;7.82;;;5.50;1.00;;;;;;5086327;28;20808;-73
2020/12/11 10:32:39;;;;;;;14.43;7.10;;;5.60;1.00;;;;;;5072594;28;21513;-73
2020/12/11 10:35:06;;;;;;;16.35;8.00;;;5.80;1.00;;;;;;5072552;28;20242;-73
2020/12/11 10:37:32;;;;;;;17.40;7.30;;;5.80;1.00;;;;;;5073704;28;20194;-73
2020/12/11 10:39:58;;;;;;;16.70;7.90;;;5.90;1.00;;;;;;5075992;28;20977;-73
2020/12/11 10:42:24;;;;;;;14.93;7.53;;;5.90;1.00;;;;;;5074211;28;20441;-74
2020/12/11 10:44:50;;;;;;;12.87;7.13;;;6.00;1.00;;;;;;5091557;28;20695;-74
2020/12/11 10:47:16;;;;;;;11.87;7.00;;;6.00;1.00;;;;;;5092705;28;20436;-74
2020/12/11 10:49:41;;;;;;;19.43;8.23;;;6.10;1.00;;;;;;5083318;28;20174;-74
2020/12/11 10:52:07;;;;;;;18.23;8.53;;;6.20;1.00;;;;;;5072738;28;20189;-74
2020/12/11 10:54:33;;;;;;;14.43;6.80;;;6.20;1.00;;;;;;5080407;28;20253;-75
2020/12/11 10:56:59;;;;;;;15.27;7.47;;;6.20;1.00;;;;;;5092402;28;20544;-75
2020/12/11 10:59:25;;;;;;;18.17;7.97;;;6.30;1.00;;;;;;5092999;28;20397;-75
2020/12/11 11:01:51;;;;;;;17.40;7.43;;;6.30;1.00;;;;;;5083112;28;20440;-74
2020/12/11 11:04:27;;;;;;;14.90;7.70;;;6.50;1.00;;;;;;5086980;28;20626;-75
2020/12/11 11:07:10;;;;;;;16.53;7.80;;;6.40;1.00;;;;;;5073111;28;20485;-75
2020/12/11 11:28:13;;;;;;;24.20;7.60;;;6.20;1.00;;;;;;5043676;28;20825;-73
2020/12/11 11:30:44;;;;;;;16.50;7.83;;;6.10;1.00;;;;;;5048195;28;20410;-73
2020/12/11 11:33:10;;;;;;;14.83;6.97;;;6.10;1.00;;;;;;5046272;28;20181;-73
2020/12/11 11:35:36;;;;;;;16.27;7.83;;;6.10;1.00;;;;;;5052514;28;20451;-73
2020/12/11 11:38:06;;;;;;;18.80;7.93;;;6.10;1.00;;;;;;5066835;28;20270;-73
2020/12/11 11:40:31;;;;;;;12.97;7.33;;;6.00;1.00;;;;;;5053470;28;20215;-73
2020/12/11 11:42:57;;;;;;;18.60;8.27;;;6.10;1.00;;;;;;5053815;28;20448;-73
2020/12/11 11:45:27;;;;;;;15.73;7.70;;;6.10;1.00;;;;;;5054100;28;20214;-73
2020/12/11 11:47:55;;;;;;;18.03;8.07;;;6.10;1.00;;;;;;5044298;28;20188;-73
2020/12/11 11:53:15;;;;;;;15.20;6.87;;;6.10;1.00;;;;;;5053519;28;20440;-73
2020/12/11 11:55:44;;;;;;;15.50;7.90;;;6.10;1.00;;;;;;5053798;28;20391;-73
2020/12/11 11:58:10;;;;;;;14.90;7.90;;;6.00;1.00;;;;;;5053931;28;20420;-76
2020/12/11 12:00:36;;;;;;;14.33;7.60;;;6.30;1.00;;;;;;5084548;28;20420;-75
2020/12/11 12:03:03;;;;;;;14.70;7.50;;;6.40;1.00;;;;;;5093859;28;20412;-76
2020/12/11 12:05:28;;;;;;;14.00;7.47;;;6.50;1.00;;;;;;5078153;28;20451;-75
2020/12/11 12:07:54;;;;;;;17.10;8.20;;;6.50;1.00;;;;;;5074596;28;20453;-75
2020/12/11 12:10:20;;;;;;;18.33;8.40;;;6.70;1.00;;;;;;5077185;28;20217;-75
2020/12/11 12:12:45;;;;;;;25.00;8.67;;;6.70;1.00;;;;;;5083344;28;20233;-76
2020/12/11 12:15:24;;;;;;;17.07;7.93;;;6.80;1.00;;;;;;5075136;28;20183;-75
2020/12/11 12:20:27;;;;;;;15.40;6.70;;;6.50;1.00;;;;;;5074865;28;20382;-75
2020/12/11 12:31:04;;;;;;;15.50;7.43;;;6.60;1.00;;;;;;5096248;28;20852;-74
2020/12/11 12:43:24;;;;;;;15.53;6.83;;;6.90;1.00;;;;;;5093456;28;20432;-74
2020/12/11 12:45:50;;;;;;;17.47;6.90;;;6.90;1.00;;;;;;5083887;28;20491;-75
2020/12/11 12:48:15;;;;;;;20.83;8.37;;;6.80;1.00;;;;;;5074501;28;20401;-75
2020/12/11 12:50:41;;;;;;;19.30;6.93;;;7.00;1.00;;;;;;5073541;28;20538;-75
2020/12/11 12:53:07;;;;;;;15.80;7.37;;;7.00;1.00;;;;;;5084339;28;20194;-75
2020/12/11 12:55:40;;;;;;;27.60;8.33;;;7.30;1.00;;;;;;5094525;28;20401;-75
2020/12/11 12:58:11;;;;;;;17.23;7.80;;;7.30;1.00;;;;;;5094456;28;20171;-75
2020/12/11 13:01:03;;;;;;;14.80;6.50;;;7.40;1.00;;;;;;5092701;28;20392;-76
2020/12/11 13:03:56;;;;;;;14.87;7.13;;;7.40;1.00;;;;;;5093027;28;20420;-75
2020/12/11 13:06:17;;;;;;;18.00;7.40;;;7.20;1.00;;;;;;5094156;28;20455;-75
2020/12/11 13:08:42;;;;;;;15.13;7.43;;;7.20;1.00;;;;;;5094240;28;20389;-75
2020/12/11 13:11:10;;;;;;;20.63;8.57;;;8.70;1.00;;;;;;5094322;28;20150;-75
2020/12/11 13:13:35;;;;;;;15.33;7.03;;;7.20;1.00;;;;;;5079454;28;20183;-74
2020/12/11 13:16:01;;;;;;;16.87;7.43;;;7.30;1.00;;;;;;5079181;28;20443;-75
2020/12/11 13:18:26;;;;;;;15.77;7.30;;;7.30;1.00;;;;;;5094317;28;20238;-76
2020/12/11 13:20:53;;;;;;;14.37;7.30;;;8.90;1.00;;;;;;5094145;28;20554;-75
2020/12/11 13:26:15;;;;;;;13.63;7.17;;;;;;;;;;5092585;28;20558;-75
2020/12/11 13:28:43;;;;;;;12.90;6.80;;;7.40;1.00;;;;;;5092449;28;20404;-73
2020/12/11 13:31:16;;;;;;;12.40;6.37;;;7.40;1.00;;;;;;5094093;28;20479;-75
2020/12/11 13:33:42;;;;;;;17.37;7.87;;;7.30;1.00;;;;;;5092249;28;20796;-75
2020/12/11 13:36:08;;;;;;;16.47;7.63;;;7.30;1.00;;;;;;5093741;28;20428;-75
2020/12/11 13:38:34;;;;;;;13.50;6.83;;;8.80;1.00;;;;;;5092034;28;20264;-75
2020/12/11 13:40:59;;;;;;;26.93;7.30;;;7.20;1.00;;;;;;5079832;28;20441;-75
2020/12/11 13:43:44;;;;;;;13.73;6.90;;;7.10;1.00;;;;;;5083394;28;20233;-75
2020/12/11 13:46:10;;;;;;;16.07;7.27;;;7.10;1.00;;;;;;5074502;28;20207;-75
2020/12/11 13:48:39;;;;;;;11.40;6.47;;;7.90;1.00;;;;;;5085330;28;20416;-75
2020/12/11 13:51:32;;;;;;;17.03;8.00;;;7.10;1.00;;;;;;5074452;28;20394;-75
2020/12/11 13:54:03;;;;;;;15.10;7.43;;;7.20;1.00;;;;;;5076335;28;20497;-75
2020/12/11 13:56:33;;;;;;;14.57;7.37;;;7.20;1.00;;;;;;5074390;28;20390;-75
2020/12/11 13:59:03;;;;;;;16.07;7.70;;;7.10;1.00;;;;;;5074293;28;20401;-74
2020/12/11 14:01:28;;;;;;;17.40;7.20;;;7.10;1.00;;;;;;5073913;28;20437;-73
2020/12/11 14:03:54;;;;;;;12.67;6.23;;;7.00;1.00;;;;;;5073755;28;20416;-73
2020/12/11 14:06:30;;;;;;;15.00;7.57;;;7.10;1.00;;;;;;5073692;28;20183;-73
2020/12/11 14:08:57;;;;;;;12.03;6.47;;;6.90;1.00;;;;;;5073792;28;20220;-74
2020/12/11 14:11:25;;;;;;;16.40;6.70;;;6.70;1.00;;;;;;5092264;28;20462;-73
2020/12/11 14:13:52;;;;;;;14.00;7.03;;;6.70;1.00;;;;;;5089721;28;20834;-74
2020/12/11 14:16:33;;;;;;;13.87;7.50;;;6.70;1.00;;;;;;5074214;28;20817;-75